Time;durP1;ratioP1;P1;durP2;ratioP2;P2;SDS_P1;SDS_P2;PMS_P1;PMS_P2;Temp;Humidity;BMP_temperature;BMP_pressure;BME280_temperature;BME280_humidity;BME280_pressure;Samples;Min_cycle;Max_cycle;Signal;HPM_P1;HPM_P2
2021/12/05 00:23:47;;;;;;;15.05;5.65;;;;;;;2.43;85.24;99743.00;5032894;28;20030;-74
2021/12/05 00:26:17;;;;;;;14.60;5.05;;;;;;;2.44;85.60;99743.84;4999936;28;20087;-73
2021/12/05 00:29:10;;;;;;;16.88;5.22;;;;;;;2.45;86.03;99747.31;5015274;28;20025;-73
2021/12/05 00:42:07;;;;;;;12.25;4.22;;;;;;;2.47;85.27;99746.47;5033207;28;20083;-74
2021/12/05 01:00:49;;;;;;;11.30;4.75;;;;;;;2.39;84.81;99755.91;5016794;28;20040;-73
2021/12/05 01:16:30;;;;;;;17.55;5.80;;;;;;;2.04;85.66;99752.31;5032383;28;20091;-73
2021/12/05 01:18:56;;;;;;;15.38;6.22;;;;;;;1.98;85.42;99754.84;5013655;28;20547;-74
2021/12/05 01:21:24;;;;;;;15.13;5.25;;;;;;;1.93;85.68;99756.56;5015007;28;20468;-73
2021/12/05 01:23:58;;;;;;;18.63;5.72;;;;;;;1.85;85.29;99753.94;5013708;28;20029;-73
2021/12/05 01:26:32;;;;;;;18.60;6.65;;;;;;;1.81;86.19;99757.34;5014347;28;20037;-73
2021/12/05 01:36:56;;;;;;;22.20;5.70;;;;;;;1.61;86.49;99758.91;5032104;28;20138;-73
2021/12/05 01:44:50;;;;;;;10.45;5.00;;;;;;;1.45;86.78;99756.22;5006084;28;20429;-72
2021/12/05 02:02:53;;;;;;;12.30;4.63;;;;;;;1.29;87.97;99752.63;5013993;28;20564;-81
2021/12/05 02:16:16;;;;;;;19.17;5.43;;;;;;;1.38;87.82;99747.56;5002687;28;20095;-80
2021/12/05 02:43:14;;;;;;;11.35;4.22;;;;;;;1.36;88.24;99738.94;4978041;28;20453;-80
2021/12/05 02:45:45;;;;;;;17.30;6.00;;;;;;;1.38;88.27;99741.53;4994403;28;20026;-82
2021/12/05 02:48:11;;;;;;;12.43;4.47;;;;;;;1.39;88.49;99738.09;4993738;28;20033;-84
2021/12/05 02:50:38;;;;;;;9.30;4.10;;;;;;;1.37;88.33;99727.75;4994382;28;20034;-83
2021/12/05 02:53:46;;;;;;;12.52;4.43;;;;;;;1.37;88.33;99725.16;4993880;28;20469;-81
2021/12/05 02:55:57;;;;;;;14.30;4.10;;;;;;;1.37;88.34;99719.16;5010143;28;20038;-82
2021/12/05 02:59:00;;;;;;;17.70;5.07;;;;;;;1.37;88.59;99724.31;4981285;28;20121;-80
2021/12/05 03:01:27;;;;;;;14.73;4.70;;;;;;;1.41;88.60;99725.19;5005373;28;20049;-83
2021/12/05 03:03:54;;;;;;;13.63;2.83;;;;;;;1.38;88.38;99720.91;5007382;28;20108;-82
2021/12/05 03:06:26;;;;;;;16.55;3.92;;;;;;;1.41;88.07;99718.34;5017655;28;20025;-81
2021/12/05 03:08:58;;;;;;;12.23;3.83;;;;;;;1.36;88.30;99715.69;5017605;28;20036;-83
2021/12/05 03:11:30;;;;;;;8.88;3.65;;;;;;;1.35;88.44;99724.31;5016970;28;20033;-81
2021/12/05 03:13:56;;;;;;;8.00;3.75;;;;;;;1.33;88.60;99732.88;5016338;28;20029;-80
2021/12/05 03:16:23;;;;;;;14.48;4.10;;;;;;;1.31;88.97;99729.44;5017473;28;20163;-83
2021/12/05 03:18:49;;;;;;;12.68;4.07;;;;;;;1.33;88.80;99733.75;5016887;28;20018;-81
2021/12/05 03:21:15;;;;;;;15.60;4.47;;;;;;;1.37;88.80;99730.34;5017090;28;20027;-78
2021/12/05 03:23:43;;;;;;;18.48;4.95;;;;;;;1.43;89.22;99732.09;4981538;28;20021;-82
2021/12/05 03:26:13;;;;;;;19.08;5.00;;;;;;;1.49;89.20;99728.69;5008948;28;20033;-79
2021/12/05 03:28:39;;;;;;;11.83;4.70;;;;;;;1.52;88.84;99733.88;5016561;28;20466;-80
2021/12/05 03:31:05;;;;;;;9.75;4.25;;;;;;;1.55;89.18;99737.38;5000136;28;20029;-77
2021/12/05 03:33:31;;;;;;;7.68;3.38;;;;;;;1.59;88.48;99746.00;5016288;28;20139;-81
2021/12/05 03:35:57;;;;;;;5.18;3.47;;;;;;;1.60;88.49;99741.72;5016907;28;20071;-78
2021/12/05 03:38:23;;;;;;;12.50;3.47;;;;;;;1.62;88.86;99735.69;5016440;28;20044;-81
2021/12/05 03:40:48;;;;;;;12.50;4.20;;;;;;;1.66;88.35;99736.56;4984255;28;20029;-79
2021/12/05 03:43:17;;;;;;;12.23;4.20;;;;;;;1.66;88.22;99721.94;5015756;28;20038;-80
2021/12/05 03:45:54;;;;;;;16.65;4.47;;;;;;;1.69;88.33;99721.94;5016432;28;20026;-82
2021/12/05 03:48:22;;;;;;;7.50;4.28;;;;;;;1.69;87.84;99723.69;5000786;28;20124;-82
2021/12/05 03:50:49;;;;;;;9.82;3.88;;;;;;;1.69;88.32;99727.13;5016527;28;20018;-83
2021/12/05 03:53:16;;;;;;;10.98;5.07;;;;;;;1.70;88.24;99723.69;5000247;28;20032;-81
2021/12/05 03:55:44;;;;;;;21.35;5.47;;;;;;;1.72;88.22;99723.69;4980548;28;20536;-82
2021/12/05 03:58:10;;;;;;;14.55;4.15;;;;;;;1.77;88.40;99723.72;4999495;28;20053;-80
2021/12/05 04:00:39;;;;;;;13.07;5.28;;;;;;;1.77;88.44;99727.19;5016186;28;20436;-83
2021/12/05 04:03:07;;;;;;;17.33;5.05;;;;;;;1.77;88.02;99727.19;4995717;28;20143;-84
2021/12/05 04:05:34;;;;;;;8.77;4.70;;;;;;;1.79;88.07;99732.34;5006670;28;20116;-81
2021/12/05 04:08:01;;;;;;;10.57;4.63;;;;;;;1.80;87.91;99728.94;5016136;28;20037;-79
2021/12/05 04:10:28;;;;;;;8.68;4.70;;;;;;;1.81;87.73;99722.88;5014149;28;20029;-79
2021/12/05 04:12:55;;;;;;;9.95;4.03;;;;;;;1.82;88.12;99728.06;4996045;28;20124;-83
2021/12/05 04:15:21;;;;;;;9.25;4.53;;;;;;;1.84;88.09;99726.38;4995581;28;20038;-84
2021/12/05 04:17:46;;;;;;;10.43;4.32;;;;;;;1.89;88.28;99718.63;4995038;28;20034;-82
2021/12/05 04:20:13;;;;;;;9.48;4.07;;;;;;;1.91;88.12;99727.25;5010903;28;20056;-81
2021/12/05 04:22:40;;;;;;;11.98;4.68;;;;;;;1.98;88.33;99723.84;4980320;28;20111;-80
2021/12/05 04:25:10;;;;;;;10.82;3.78;;;;;;;2.02;87.81;99727.31;4999027;28;20076;-80
2021/12/05 04:27:39;;;;;;;6.63;4.18;;;;;;;2.08;87.83;99725.63;4999599;28;20029;-81
2021/12/05 04:30:08;;;;;;;10.85;4.43;;;;;;;2.14;88.02;99723.91;5015282;28;20033;-87
2021/12/05 04:32:34;;;;;;;10.60;4.55;;;;;;;2.17;87.86;99724.81;5016016;28;20040;-83
2021/12/05 04:34:59;;;;;;;10.15;4.22;;;;;;;2.21;87.68;99721.38;5014978;28;20075;-83
2021/12/05 04:37:25;;;;;;;12.82;5.10;;;;;;;2.24;86.87;99720.50;5015673;28;20033;-82
2021/12/05 04:39:51;;;;;;;8.32;3.90;;;;;;;2.26;87.54;99726.56;5015700;28;20029;-83
2021/12/05 04:42:19;;;;;;;9.13;4.13;;;;;;;2.25;87.26;99727.41;4998654;28;20465;-84
2021/12/05 04:44:46;;;;;;;7.70;3.50;;;;;;;2.21;87.23;99721.38;5015611;28;20029;-81
2021/12/05 04:47:11;;;;;;;14.45;4.10;;;;;;;2.19;87.21;99723.06;4999359;28;20485;-85
2021/12/05 04:49:40;;;;;;;14.30;5.03;;;;;;;2.21;87.34;99730.84;5015284;28;20107;-85
2021/12/05 04:52:07;;;;;;;7.28;4.00;;;;;;;2.23;87.39;99729.16;5015179;28;20029;-82
2021/12/05 04:54:33;;;;;;;9.13;4.05;;;;;;;2.24;87.42;99725.69;4982353;28;20033;-82
2021/12/05 04:56:59;;;;;;;7.45;3.78;;;;;;;2.23;87.25;99727.41;4995753;28;20042;-82
2021/12/05 04:59:26;;;;;;;5.50;3.47;;;;;;;2.24;87.64;99728.25;4998005;28;20392;-78
2021/12/05 05:01:54;;;;;;;10.50;4.22;;;;;;;2.28;87.68;99727.41;5014928;28;20048;-83
2021/12/05 05:06:46;;;;;;;10.48;4.43;;;;;;;2.33;87.08;99725.72;4999102;28;20033;-80
2021/12/05 05:09:12;;;;;;;11.48;4.07;;;;;;;2.35;87.23;99724.00;4982494;28;20030;-77
2021/12/05 05:11:39;;;;;;;6.82;3.33;;;;;;;2.36;87.54;99720.56;5014997;28;20493;-79
2021/12/05 05:14:04;;;;;;;10.35;4.13;;;;;;;2.38;86.82;99724.00;4998502;28;20040;-83
2021/12/05 05:16:30;;;;;;;7.88;3.35;;;;;;;2.40;87.48;99727.47;5014571;28;20041;-80
2021/12/05 05:18:58;;;;;;;11.13;3.67;;;;;;;2.43;87.78;99730.06;4970410;28;20437;-79
2021/12/05 05:21:51;;;;;;;7.05;3.72;;;;;;;2.40;87.75;99722.31;5010968;28;21125;-82
2021/12/05 05:41:53;;;;;;;7.90;4.07;;;;;;;2.37;88.21;99750.75;5003745;28;20100;-80
2021/12/05 05:50:59;;;;;;;10.00;3.78;;;;;;;2.31;87.93;99748.13;5032018;28;20182;-80
2021/12/05 05:53:25;;;;;;;4.25;3.50;;;;;;;2.30;88.20;99755.88;5013414;28;20028;-80
2021/12/05 05:55:53;;;;;;;4.63;3.42;;;;;;;2.29;88.30;99755.00;4978032;28;20034;-81
2021/12/05 05:58:22;;;;;;;8.32;3.60;;;;;;;2.27;88.43;99761.91;4994295;28;20053;-81
2021/12/05 06:01:08;;;;;;;4.15;3.72;;;;;;;2.28;88.06;99773.09;4994429;28;20474;-84
2021/12/05 06:03:34;;;;;;;3.70;3.10;;;;;;;2.27;88.22;99766.19;4986283;28;20382;-83
2021/12/05 06:06:03;;;;;;;4.53;2.92;;;;;;;2.25;88.40;99766.19;5014444;28;20049;-81
2021/12/05 06:08:30;;;;;;;2.95;2.40;;;;;;;2.23;88.33;99771.34;5013290;28;20473;-82
2021/12/05 06:10:59;;;;;;;5.55;3.15;;;;;;;2.20;87.61;99775.66;5013918;28;20060;-78
2021/12/05 06:13:26;;;;;;;4.32;2.40;;;;;;;2.20;87.11;99783.41;5013320;28;20123;-81
2021/12/05 06:15:52;;;;;;;2.88;2.15;;;;;;;2.15;87.92;99783.38;5014027;28;20029;-80
2021/12/05 06:18:18;;;;;;;2.67;1.70;;;;;;;2.12;87.82;99785.94;4996499;28;20405;-78
2021/12/05 06:20:43;;;;;;;1.65;1.50;;;;;;;2.07;87.54;99791.09;5008543;28;20025;-81
2021/12/05 06:23:11;;;;;;;2.55;1.95;;;;;;;2.06;87.59;99785.91;5013514;28;20525;-80
2021/12/05 06:25:39;;;;;;;2.08;1.88;;;;;;;2.01;88.16;99798.81;5013693;28;20119;-80
2021/12/05 06:28:11;;;;;;;4.55;2.00;;;;;;;2.00;87.75;99804.81;5012974;28;20585;-80
2021/12/05 06:30:52;;;;;;;4.10;2.83;;;;;;;2.01;87.79;99798.81;4994238;28;20029;-80
2021/12/05 06:46:30;;;;;;;2.80;2.33;;;;;;;1.93;88.91;99820.28;5031440;28;20091;-78
2021/12/05 06:48:56;;;;;;;4.20;3.10;;;;;;;1.90;88.20;99815.97;5012982;28;20523;-82
2021/12/05 06:51:25;;;;;;;5.45;2.50;;;;;;;1.89;88.85;99825.41;5013431;28;20030;-80
2021/12/05 06:53:51;;;;;;;4.47;3.35;;;;;;;1.86;89.23;99827.13;5010066;28;20083;-79
2021/12/05 06:56:17;;;;;;;3.35;2.58;;;;;;;1.86;88.76;99827.97;5006825;28;20120;-81
2021/12/05 06:58:44;;;;;;;2.63;2.42;;;;;;;1.85;88.80;99825.38;5012960;28;20098;-77
2021/12/05 07:01:11;;;;;;;2.40;2.20;;;;;;;1.86;89.44;99829.69;5013091;28;20041;-78
2021/12/05 07:03:43;;;;;;;2.55;2.20;;;;;;;1.86;89.23;99837.47;4996628;28;20037;-80
2021/12/05 07:06:12;;;;;;;2.22;2.03;;;;;;;1.89;89.54;99845.22;5010646;28;20457;-81
2021/12/05 07:08:40;;;;;;;3.80;2.90;;;;;;;1.85;88.74;99844.34;5008472;28;20030;-83
2021/12/05 07:24:40;;;;;;;4.97;3.08;;;;;;;1.90;89.27;99872.81;5014546;28;20037;-78
2021/12/05 07:40:52;;;;;;;3.65;3.20;;;;;;;1.95;89.97;99884.00;5030542;28;20088;-79
2021/12/05 07:43:18;;;;;;;4.05;3.45;;;;;;;1.95;89.37;99881.44;4979315;28;20453;-77
2021/12/05 07:45:54;;;;;;;3.75;3.35;;;;;;;1.95;90.10;99884.00;5015842;28;20436;-79
2021/12/05 07:48:25;;;;;;;4.40;2.97;;;;;;;1.96;90.26;99893.50;5015959;28;20557;-77
2021/12/05 07:51:05;;;;;;;5.10;3.10;;;;;;;1.99;89.41;99898.69;5016225;28;20033;-78
2021/12/05 08:15:26;;;;;;;4.10;3.67;;;;;;;2.09;89.72;99912.56;5009447;28;20508;-81
2021/12/05 08:17:53;;;;;;;4.53;3.95;;;;;;;2.11;89.34;99907.41;4996323;28;20393;-81
2021/12/05 08:20:23;;;;;;;4.53;3.50;;;;;;;2.12;89.93;99919.47;4997739;28;20083;-79
2021/12/05 08:22:49;;;;;;;3.60;3.22;;;;;;;2.12;89.84;99924.66;5013816;28;20029;-78
2021/12/05 08:25:15;;;;;;;4.72;3.67;;;;;;;2.14;89.48;99925.50;5012850;28;20037;-81
2021/12/05 08:27:46;;;;;;;4.88;4.28;;;;;;;2.13;89.49;99919.50;5013760;28;20025;-79
2021/12/05 08:30:19;;;;;;;7.85;4.90;;;;;;;2.16;89.87;99929.00;5012706;28;20029;-79
2021/12/05 08:35:50;;;;;;;7.75;2.85;;;;;;;2.17;90.21;99928.13;5030201;28;20049;-73
2021/12/05 08:39:18;;;;;;;5.85;3.75;;;;;;;2.16;89.70;99934.16;5029167;28;20132;-73
2021/12/05 08:46:26;;;;;;;10.40;7.90;;;;;;;2.20;90.39;99939.38;5025416;28;20037;-73
2021/12/05 10:13:55;;;;;;;14.63;7.57;;;;;;;3.12;88.92;100063.31;5022985;28;20384;-71
2021/12/05 10:38:47;;;;;;;5.18;4.65;;;;;;;2.90;89.23;100076.94;5027913;28;20033;-74
2021/12/05 10:44:00;;;;;;;5.05;4.65;;;;;;;2.89;88.74;100088.19;5029546;28;20706;-73
2021/12/05 10:46:29;;;;;;;5.45;4.93;;;;;;;2.89;88.75;100098.53;5011989;28;20450;-74
2021/12/05 10:49:02;;;;;;;6.88;4.50;;;;;;;2.88;88.62;100091.63;4994086;28;20021;-73
2021/12/05 10:51:50;;;;;;;4.22;3.88;;;;;;;2.86;88.16;100093.31;5012610;28;20030;-74
2021/12/05 10:54:23;;;;;;;4.78;4.32;;;;;;;2.87;88.54;100093.31;5011738;28;20053;-73
2021/12/05 10:56:52;;;;;;;5.43;4.90;;;;;;;2.89;88.50;100096.81;5011813;28;20481;-72
2021/12/05 10:59:21;;;;;;;4.50;4.10;;;;;;;2.89;88.49;100090.78;5011108;28;20075;-73
2021/12/05 11:01:56;;;;;;;5.28;4.78;;;;;;;2.90;87.79;100095.94;5010479;28;20025;-74
2021/12/05 11:04:29;;;;;;;6.63;4.03;;;;;;;2.92;88.95;100093.38;5010660;28;20117;-72
2021/12/05 11:07:07;;;;;;;5.93;4.90;;;;;;;2.92;88.24;100096.81;5006226;28;20099;-73
2021/12/05 11:09:36;;;;;;;5.07;4.68;;;;;;;2.92;87.61;100107.16;5021364;28;20033;-74
2021/12/05 11:12:11;;;;;;;4.15;3.75;;;;;;;2.92;88.31;100094.22;5004286;28;20100;-72
2021/12/05 11:14:40;;;;;;;7.03;4.30;;;;;;;2.92;88.44;100099.41;5012391;28;20025;-74
2021/12/05 11:17:11;;;;;;;5.82;4.90;;;;;;;2.93;88.45;100103.72;5014271;28;20030;-73
2021/12/05 11:19:51;;;;;;;5.10;4.25;;;;;;;2.97;88.29;100101.16;5014713;28;20033;-73
2021/12/05 11:22:23;;;;;;;5.57;3.65;;;;;;;2.96;87.26;100105.50;4997620;28;20030;-73
2021/12/05 11:24:58;;;;;;;3.13;2.80;;;;;;;2.95;87.28;100114.09;5014317;28;20029;-73
2021/12/05 11:27:38;;;;;;;4.90;2.80;;;;;;;2.96;87.58;100110.66;5014916;28;20033;-73
2021/12/05 11:30:10;;;;;;;3.70;2.22;;;;;;;2.97;86.97;100116.69;5009242;28;20429;-73
2021/12/05 11:32:43;;;;;;;16.35;2.85;;;;;;;2.98;87.28;100119.28;5014458;28;20132;-73
2021/12/05 11:35:13;;;;;;;5.47;2.92;;;;;;;3.03;87.30;100116.72;5014484;28;20041;-73
2021/12/05 11:38:03;;;;;;;4.95;2.00;;;;;;;3.09;87.21;100117.66;5014012;28;20477;-73
2021/12/05 11:40:42;;;;;;;2.75;2.53;;;;;;;3.11;86.07;100123.69;5013018;28;20388;-73
2021/12/05 11:43:11;;;;;;;3.20;2.70;;;;;;;3.14;86.62;100125.44;5014566;28;20037;-73
2021/12/05 11:46:02;;;;;;;4.40;3.13;;;;;;;3.19;85.94;100135.81;4998702;28;20043;-74
2021/12/05 11:48:34;;;;;;;4.57;3.60;;;;;;;3.20;86.50;100138.44;5028282;28;20116;-73
2021/12/05 11:51:02;;;;;;;3.55;3.25;;;;;;;3.26;86.52;100142.78;5015116;28;20144;-73
2021/12/05 11:53:42;;;;;;;3.53;3.22;;;;;;;3.25;86.17;100144.50;5014935;28;20040;-73
2021/12/05 11:56:09;;;;;;;3.22;2.92;;;;;;;3.25;85.82;100148.84;4999911;28;20052;-74
2021/12/05 11:58:35;;;;;;;3.47;3.17;;;;;;;3.24;86.73;100147.09;4997868;28;20126;-73
2021/12/05 12:01:10;;;;;;;3.50;3.08;;;;;;;3.24;85.70;100144.50;5015297;28;20031;-73
2021/12/05 12:03:37;;;;;;;4.10;3.70;;;;;;;3.21;85.55;100142.75;5014489;28;20029;-73
2021/12/05 12:06:03;;;;;;;4.75;4.28;;;;;;;3.21;85.94;100147.94;4979189;28;20029;-73
2021/12/05 12:08:29;;;;;;;2.55;2.35;;;;;;;3.20;85.90;100145.34;5014030;28;20032;-74
2021/12/05 12:10:58;;;;;;;4.38;3.83;;;;;;;3.18;85.98;100147.06;4980705;28;20041;-73
2021/12/05 12:13:30;;;;;;;4.80;3.80;;;;;;;3.15;85.87;100149.59;4998812;28;20021;-73
2021/12/05 12:16:00;;;;;;;2.90;2.67;;;;;;;3.16;85.32;100156.53;5014040;28;20029;-73
2021/12/05 12:18:32;;;;;;;4.30;3.90;;;;;;;3.17;85.81;100160.84;5012074;28;20397;-73
2021/12/05 12:21:03;;;;;;;6.82;3.85;;;;;;;3.17;85.11;100160.84;5012942;28;20038;-73
2021/12/05 12:23:31;;;;;;;3.17;2.88;;;;;;;3.17;85.42;100160.84;5013705;28;20026;-73
2021/12/05 12:25:59;;;;;;;3.65;3.35;;;;;;;3.16;84.46;100160.00;5010998;28;20180;-73
2021/12/05 12:28:25;;;;;;;3.30;3.00;;;;;;;3.17;84.95;100160.84;5009757;28;20026;-73
2021/12/05 12:31:02;;;;;;;3.50;3.08;;;;;;;3.18;84.81;100154.84;5012912;28;20029;-74
2021/12/05 12:33:50;;;;;;;2.42;2.22;;;;;;;3.21;85.47;100168.66;5012516;28;20069;-73
2021/12/05 12:36:16;;;;;;;2.83;2.20;;;;;;;3.22;84.87;100160.03;5012281;28;20425;-73
2021/12/05 12:38:47;;;;;;;2.33;2.13;;;;;;;3.24;84.27;100166.06;4998174;28;20496;-73
2021/12/05 12:41:19;;;;;;;4.53;2.40;;;;;;;3.24;84.26;100170.41;4988506;28;20045;-74
2021/12/05 12:43:52;;;;;;;2.35;2.15;;;;;;;3.27;84.49;100175.59;5026240;28;20029;-73
2021/12/05 12:46:36;;;;;;;2.72;2.53;;;;;;;3.28;83.87;100178.19;5014138;28;20076;-73
2021/12/05 12:49:13;;;;;;;5.00;2.47;;;;;;;3.31;84.57;100179.09;5011755;28;20067;-73
2021/12/05 12:51:44;;;;;;;3.03;2.83;;;;;;;3.35;84.56;100186.00;5011480;28;20084;-73
2021/12/05 12:54:37;;;;;;;4.72;4.22;;;;;;;3.39;83.45;100191.25;5012092;28;20037;-73
2021/12/05 12:57:19;;;;;;;5.00;3.38;;;;;;;3.46;84.43;100185.25;5005016;28;20072;-73
2021/12/05 13:00:00;;;;;;;1.95;1.58;;;;;;;3.50;83.77;100190.44;5007330;28;20044;-73
2021/12/05 13:02:57;;;;;;;2.38;2.15;;;;;;;3.50;83.01;100193.03;5010573;28;20061;-73
2021/12/05 13:11:09;;;;;;;2.50;2.25;;;;;;;3.47;82.97;100196.47;5026411;28;20079;-72
2021/12/05 13:13:38;;;;;;;2.03;1.83;;;;;;;3.52;82.72;100209.44;5008803;28;21403;-73
2021/12/05 13:16:26;;;;;;;2.80;2.60;;;;;;;3.56;83.51;100206.91;4968657;28;21234;-73
2021/12/05 13:19:10;;;;;;;2.42;2.00;;;;;;;3.61;83.81;100194.81;5006687;28;20119;-72
2021/12/05 13:21:40;;;;;;;2.45;2.25;;;;;;;3.65;83.34;100200.91;5010067;28;20064;-72
2021/12/05 13:24:32;;;;;;;2.15;2.05;;;;;;;3.68;83.46;100206.09;5013749;28;20040;-72
2021/12/05 13:27:01;;;;;;;3.25;2.65;;;;;;;3.67;82.85;100213.88;5012736;28;20392;-73
2021/12/05 13:29:29;;;;;;;3.10;2.45;;;;;;;3.63;82.43;100213.84;5009305;28;20021;-73
2021/12/05 13:32:03;;;;;;;4.55;2.80;;;;;;;3.64;81.84;100222.50;4987821;28;20037;-73
2021/12/05 13:34:28;;;;;;;2.95;2.63;;;;;;;3.61;82.09;100220.72;5012024;28;20052;-73
2021/12/05 13:37:05;;;;;;;3.58;3.17;;;;;;;3.59;81.68;100224.16;5013685;28;20029;-73
2021/12/05 13:39:49;;;;;;;2.88;2.67;;;;;;;3.62;83.17;100230.25;5011732;28;20124;-73
2021/12/05 13:42:39;;;;;;;2.47;2.10;;;;;;;3.64;82.70;100233.72;5011367;28;20039;-73
2021/12/05 13:45:33;;;;;;;3.05;2.42;;;;;;;3.63;82.43;100238.88;5012249;28;20036;-73
2021/12/05 13:48:00;;;;;;;14.63;13.05;;;;;;;3.63;82.42;100246.66;5002013;28;20091;-73
2021/12/05 13:50:29;;;;;;;7.22;6.53;;;;;;;3.62;82.49;100243.22;5013522;28;20057;-73
2021/12/05 13:53:05;;;;;;;3.95;3.28;;;;;;;3.62;82.27;100252.69;5004930;28;20021;-73
2021/12/05 13:55:59;;;;;;;1.85;1.38;;;;;;;3.60;82.07;100247.50;5011332;28;20052;-73
2021/12/05 14:01:17;;;;;;;2.15;1.95;;;;;;;3.56;81.78;100252.66;5021080;28;20038;-72
2021/12/05 14:03:55;;;;;;;2.45;2.25;;;;;;;3.56;82.49;100247.47;5002756;28;20137;-72
2021/12/05 14:06:52;;;;;;;1.92;1.77;;;;;;;3.59;82.22;100257.84;5011441;28;20033;-73
2021/12/05 14:09:21;;;;;;;2.60;2.20;;;;;;;3.58;81.22;100266.50;5008240;28;20136;-73
2021/12/05 14:11:55;;;;;;;1.92;1.83;;;;;;;3.57;81.67;100275.13;5013771;28;20025;-72
2021/12/05 14:14:27;;;;;;;2.35;2.17;;;;;;;3.52;81.03;100272.50;5003207;28;20447;-73
2021/12/05 14:16:55;;;;;;;1.75;1.65;;;;;;;3.50;82.30;100279.38;5003633;28;20053;-73
2021/12/05 14:19:24;;;;;;;2.60;2.40;;;;;;;3.47;81.34;100276.75;5004016;28;20033;-73
2021/12/05 14:21:52;;;;;;;2.75;2.55;;;;;;;3.45;82.18;100284.53;5001262;28;20026;-73
2021/12/05 14:24:23;;;;;;;4.15;2.65;;;;;;;3.42;82.18;100284.50;4999775;28;20068;-73
2021/12/05 14:26:54;;;;;;;3.17;2.97;;;;;;;3.39;82.08;100286.19;5003431;28;20021;-73
2021/12/05 14:29:23;;;;;;;3.45;3.15;;;;;;;3.38;82.75;100292.25;4996620;28;20037;-73
2021/12/05 14:31:57;;;;;;;7.95;7.22;;;;;;;3.35;82.46;100305.13;4987330;28;20035;-73
2021/12/05 14:34:23;;;;;;;4.10;3.75;;;;;;;3.33;82.92;100309.44;5017442;28;20053;-72
2021/12/05 14:36:57;;;;;;;4.82;4.43;;;;;;;3.34;82.68;100314.63;4989323;28;20397;-73
2021/12/05 14:39:41;;;;;;;4.30;3.50;;;;;;;3.31;82.81;100324.97;5007773;28;20022;-72
2021/12/05 14:42:12;;;;;;;4.20;3.90;;;;;;;3.32;82.95;100329.31;5002407;28;20033;-72
2021/12/05 14:44:38;;;;;;;3.83;3.47;;;;;;;3.31;82.66;100330.16;5022322;28;20482;-72
2021/12/05 14:47:09;;;;;;;3.72;3.33;;;;;;;3.29;82.48;100339.66;4994411;28;20119;-72
2021/12/05 14:49:42;;;;;;;3.30;3.00;;;;;;;3.29;82.87;100331.88;5000840;28;20030;-72
2021/12/05 14:52:15;;;;;;;3.72;3.42;;;;;;;3.31;83.64;100344.84;5009040;28;20025;-72
2021/12/05 14:54:41;;;;;;;3.88;3.42;;;;;;;3.33;83.63;100349.16;5005377;28;20026;-72
2021/12/05 14:57:15;;;;;;;3.95;3.10;;;;;;;3.33;83.55;100356.91;5008326;28;20044;-72
2021/12/05 14:59:45;;;;;;;2.85;2.47;;;;;;;3.34;83.15;100371.63;5012113;28;20033;-72
2021/12/05 15:02:11;;;;;;;3.15;2.75;;;;;;;3.33;83.16;100367.28;5010910;28;20032;-72
2021/12/05 15:04:43;;;;;;;4.13;3.72;;;;;;;3.32;83.60;100370.75;5008319;28;20036;-72
2021/12/05 15:07:12;;;;;;;4.40;3.42;;;;;;;3.33;83.29;100379.38;5005704;28;20394;-72
2021/12/05 15:09:40;;;;;;;3.83;3.53;;;;;;;3.34;83.87;100386.31;4975318;28;20037;-72
2021/12/05 15:12:14;;;;;;;4.03;3.63;;;;;;;3.33;83.97;100389.72;5005454;28;20077;-72
2021/12/05 15:14:43;;;;;;;4.03;3.63;;;;;;;3.34;83.96;100399.25;5010369;28;20021;-72
2021/12/05 15:17:18;;;;;;;4.10;3.70;;;;;;;3.32;84.63;100398.34;5003625;28;20033;-72
2021/12/05 15:19:47;;;;;;;4.38;3.78;;;;;;;3.29;84.43;100407.84;5007117;28;20619;-72
2021/12/05 15:22:14;;;;;;;5.15;4.20;;;;;;;3.29;83.88;100413.00;5014559;28;20112;-72
2021/12/05 15:24:48;;;;;;;3.75;3.38;;;;;;;3.28;84.62;100410.41;5011886;28;20021;-72
2021/12/05 15:27:16;;;;;;;5.95;5.25;;;;;;;3.26;83.99;100409.50;5004136;28;20017;-72
2021/12/05 15:29:51;;;;;;;5.43;4.93;;;;;;;3.25;83.67;100421.59;5004141;28;20116;-72
2021/12/05 15:32:19;;;;;;;6.22;5.63;;;;;;;3.24;84.51;100431.94;5006008;28;20025;-72
2021/12/05 15:34:48;;;;;;;6.43;4.47;;;;;;;3.25;84.19;100433.69;5000451;28;20045;-73
2021/12/05 15:37:13;;;;;;;5.88;4.75;;;;;;;3.32;86.02;100448.44;5020341;28;20026;-72
2021/12/05 15:39:42;;;;;;;8.27;5.40;;;;;;;3.36;86.04;100445.03;4993085;28;20033;-72
2021/12/05 15:42:23;;;;;;;5.20;4.70;;;;;;;3.46;87.80;100449.47;4989297;28;20367;-72
2021/12/05 15:44:51;;;;;;;7.85;4.82;;;;;;;3.49;86.39;100455.53;5011370;28;20033;-72
2021/12/05 15:47:22;;;;;;;5.78;4.10;;;;;;;3.55;86.87;100459.06;5004148;28;20029;-72
2021/12/05 15:49:56;;;;;;;8.75;5.10;;;;;;;3.56;86.60;100460.81;5003756;28;20017;-72
2021/12/05 15:52:35;;;;;;;6.45;5.15;;;;;;;3.62;86.56;100459.97;5000625;28;20033;-72
2021/12/05 15:55:14;;;;;;;8.57;5.82;;;;;;;3.76;88.05;100471.34;5008041;28;20041;-72
2021/12/05 15:57:43;;;;;;;8.43;5.20;;;;;;;3.76;86.70;100475.66;5011823;28;20036;-72
2021/12/05 16:00:26;;;;;;;6.80;5.10;;;;;;;3.79;87.00;100479.19;4999578;28;20080;-72
2021/12/05 16:03:07;;;;;;;5.57;4.82;;;;;;;3.81;87.66;100485.22;4997899;28;20053;-72
2021/12/05 16:05:37;;;;;;;11.25;4.25;;;;;;;3.85;87.52;100474.91;4998672;28;20029;-72
2021/12/05 16:08:07;;;;;;;6.05;4.53;;;;;;;3.86;85.83;100480.09;5021821;28;20188;-73
2021/12/05 16:10:36;;;;;;;7.50;5.03;;;;;;;3.89;85.63;100485.31;5012613;28;20029;-72
2021/12/05 16:13:20;;;;;;;6.97;4.38;;;;;;;3.87;85.42;100496.53;5005803;28;20048;-73
2021/12/05 16:15:50;;;;;;;3.90;3.50;;;;;;;3.79;84.73;100499.91;5012691;28;20470;-72
2021/12/05 16:18:18;;;;;;;4.60;4.20;;;;;;;3.78;85.53;100499.91;5002082;28;20539;-72
2021/12/05 16:20:46;;;;;;;5.60;4.57;;;;;;;3.72;85.28;100505.88;4995153;28;20176;-72
2021/12/05 16:23:35;;;;;;;6.85;4.35;;;;;;;3.71;85.23;100506.72;5005457;28;20042;-72
2021/12/05 16:26:08;;;;;;;7.28;4.95;;;;;;;3.68;85.45;100517.06;5006592;28;20474;-72
2021/12/05 16:28:45;;;;;;;4.97;4.35;;;;;;;3.66;85.58;100520.50;5001377;28;20032;-72
2021/12/05 16:31:10;;;;;;;5.53;5.00;;;;;;;3.62;85.44;100522.16;5003086;28;20033;-72
2021/12/05 16:33:40;;;;;;;5.88;4.78;;;;;;;3.62;85.46;100532.53;5007499;28;20371;-73
2021/12/05 16:36:06;;;;;;;5.75;4.82;;;;;;;3.60;85.21;100529.06;5003412;28;20136;-73
2021/12/05 16:38:44;;;;;;;28.92;14.48;;;;;;;3.58;85.42;100541.13;5002907;28;20021;-72
2021/12/05 16:41:25;;;;;;;20.83;10.98;;;;;;;3.56;85.61;100548.00;5007341;28;20033;-72
2021/12/05 16:44:13;;;;;;;10.35;8.18;;;;;;;3.57;85.58;100540.25;5005003;28;20030;-72
2021/12/05 16:46:57;;;;;;;9.02;7.20;;;;;;;3.56;86.12;100538.53;5007311;28;20033;-72
2021/12/05 16:49:28;;;;;;;8.77;6.47;;;;;;;3.51;85.84;100540.19;5004302;28;20034;-72
2021/12/05 16:51:59;;;;;;;6.97;5.72;;;;;;;3.48;85.76;100537.56;5004764;28;20049;-72
2021/12/05 16:54:35;;;;;;;6.35;5.32;;;;;;;3.47;85.10;100539.25;5000827;28;21159;-72
2021/12/05 16:57:24;;;;;;;7.85;5.45;;;;;;;3.50;85.37;100542.75;4999555;28;20038;-73
2021/12/05 16:59:58;;;;;;;8.43;6.25;;;;;;;3.44;85.31;100541.81;5007771;28;20033;-72
2021/12/05 17:02:32;;;;;;;6.72;5.68;;;;;;;3.41;85.95;100549.56;5009926;28;20029;-72
2021/12/05 17:05:01;;;;;;;35.50;18.92;;;;;;;3.36;84.63;100558.13;5012697;28;20057;-72
2021/12/05 17:07:37;;;;;;;11.75;10.55;;;;;;;3.34;85.77;100567.59;5001730;28;20033;-72
2021/12/05 17:10:07;;;;;;;9.00;7.72;;;;;;;3.30;85.02;100566.66;5004064;28;20067;-73
2021/12/05 17:12:33;;;;;;;10.68;8.60;;;;;;;3.27;85.80;100566.63;5010296;28;20068;-72
2021/12/05 17:15:27;;;;;;;8.45;7.57;;;;;;;3.27;84.86;100571.81;4985873;28;20497;-72
2021/12/05 17:18:02;;;;;;;8.00;6.72;;;;;;;3.21;84.66;100584.69;5012029;28;20047;-72
2021/12/05 17:20:37;;;;;;;10.68;7.70;;;;;;;3.19;84.52;100586.38;5007086;28;20025;-72
2021/12/05 17:23:08;;;;;;;7.40;6.65;;;;;;;3.18;85.09;100587.25;5009172;28;20037;-72
2021/12/05 17:25:43;;;;;;;8.88;6.78;;;;;;;3.19;84.35;100594.13;5007184;28;20036;-72
2021/12/05 17:28:13;;;;;;;7.32;6.53;;;;;;;3.15;84.91;100594.94;5000641;28;20037;-72
2021/12/05 17:31:00;;;;;;;7.13;5.90;;;;;;;3.17;85.45;100601.88;5010506;28;20067;-72
2021/12/05 17:33:31;;;;;;;6.78;6.18;;;;;;;3.15;85.55;100607.88;5005215;28;20041;-72
2021/12/05 17:36:13;;;;;;;6.80;6.18;;;;;;;3.16;85.49;100614.81;5003684;28;20112;-72
2021/12/05 17:38:38;;;;;;;6.88;5.80;;;;;;;3.15;85.72;100623.41;5005997;28;20038;-72